createdAt,value
2019-03-10T00:01:41.252Z,27.00
2019-03-10T00:04:33.368Z,27.10
2019-03-10T00:07:25.468Z,27.00
2019-03-10T00:10:17.777Z,27.00
2019-03-10T00:13:10.175Z,27.00
2019-03-10T00:16:02.540Z,27.00
2019-03-10T00:18:54.921Z,27.00
2019-03-10T00:21:47.474Z,27.00
2019-03-10T00:24:39.832Z,27.00
2019-03-10T00:27:32.023Z,27.00
2019-03-10T00:30:24.272Z,27.00
2019-03-10T00:33:16.933Z,27.00
2019-03-10T00:36:10.123Z,27.00
2019-03-10T00:39:07.171Z,27.00
2019-03-10T00:42:16.172Z,27.00
2019-03-10T00:45:32.236Z,26.90
2019-03-10T00:48:40.855Z,26.80
2019-03-10T00:51:45.193Z,26.70
2019-03-10T00:54:37.377Z,26.70
2019-03-10T00:57:29.637Z,26.70
2019-03-10T01:00:21.863Z,26.80
2019-03-10T01:03:14.220Z,26.90
2019-03-10T01:06:06.503Z,26.80
2019-03-10T01:08:58.601Z,26.70
2019-03-10T01:11:50.599Z,26.70
2019-03-10T01:14:42.749Z,26.70
2019-03-10T01:17:35.251Z,26.70
2019-03-10T01:20:27.388Z,26.70
2019-03-10T01:23:19.341Z,26.60
2019-03-10T01:26:11.400Z,26.70
2019-03-10T01:29:03.231Z,26.80
2019-03-10T01:31:59.605Z,26.80
2019-03-10T01:34:57.215Z,26.80
2019-03-10T01:37:49.582Z,26.90
2019-03-10T01:40:41.787Z,26.90
2019-03-10T01:43:34.369Z,26.90
2019-03-10T01:46:26.438Z,26.90
2019-03-10T01:49:18.715Z,26.90
2019-03-10T01:52:10.964Z,26.90
2019-03-10T01:55:03.201Z,26.80
2019-03-10T01:57:55.487Z,26.70
2019-03-10T02:00:48.370Z,26.80
2019-03-10T02:03:40.230Z,26.80
2019-03-10T02:06:32.793Z,26.70
2019-03-10T02:09:24.601Z,26.80
2019-03-10T02:12:16.941Z,26.70
2019-03-10T02:15:09.327Z,26.70
2019-03-10T02:18:01.611Z,26.80
2019-03-10T02:20:53.400Z,26.80
2019-03-10T02:23:45.864Z,26.80
2019-03-10T02:26:39.138Z,26.90
2019-03-10T02:29:31.473Z,26.90
2019-03-10T02:32:23.868Z,26.90
2019-03-10T02:35:16.455Z,26.90
2019-03-10T02:38:11.713Z,26.90
2019-03-10T02:41:04.217Z,26.90
2019-03-10T02:43:56.724Z,27.00
2019-03-10T02:46:49.019Z,27.00
2019-03-10T02:49:41.283Z,27.00
2019-03-10T02:52:33.667Z,27.00
2019-03-10T02:55:26.163Z,26.90
2019-03-10T02:58:18.521Z,26.90
2019-03-10T03:01:10.942Z,26.90
2019-03-10T03:04:03.883Z,26.90
2019-03-10T03:06:57.133Z,26.90
2019-03-10T03:09:49.386Z,26.90
2019-03-10T03:12:41.594Z,26.90
2019-03-10T03:15:34.195Z,26.90
2019-03-10T03:18:26.407Z,26.90
2019-03-10T03:21:19.480Z,26.90
2019-03-10T03:24:11.972Z,26.90
2019-03-10T03:27:04.190Z,26.90
2019-03-10T03:29:56.560Z,26.90
2019-03-10T03:32:49.326Z,26.90
2019-03-10T03:35:51.977Z,26.90
2019-03-10T03:38:45.729Z,26.90
2019-03-10T03:41:38.229Z,27.00
2019-03-10T03:44:30.058Z,27.00
2019-03-10T03:47:22.222Z,26.90
2019-03-10T03:50:14.628Z,27.00
2019-03-10T03:53:07.080Z,27.00
2019-03-10T03:55:59.464Z,27.00
2019-03-10T03:58:51.846Z,27.00
2019-03-10T04:02:07.535Z,27.00
2019-03-10T04:04:59.836Z,26.90
2019-03-10T04:07:52.018Z,27.00
2019-03-10T04:10:43.887Z,27.00
2019-03-10T04:13:35.780Z,27.00
2019-03-10T04:16:27.689Z,27.00
2019-03-10T04:19:19.846Z,27.00
2019-03-10T04:22:11.765Z,27.10
2019-03-10T04:25:04.093Z,27.10
2019-03-10T04:27:56.175Z,27.00
2019-03-10T04:30:48.915Z,27.00
2019-03-10T04:33:41.176Z,27.10
2019-03-10T04:36:33.089Z,27.10
2019-03-10T04:39:25.260Z,27.10
2019-03-10T04:42:18.032Z,27.10
2019-03-10T04:45:10.156Z,27.10
2019-03-10T04:48:02.241Z,27.10
2019-03-10T04:50:54.380Z,27.10
2019-03-10T04:53:46.967Z,27.10
2019-03-10T04:56:51.603Z,27.10
2019-03-10T04:59:44.399Z,27.10
2019-03-10T05:02:36.820Z,27.10
2019-03-10T05:05:29.504Z,27.10
2019-03-10T05:08:22.503Z,27.10
2019-03-10T05:11:15.038Z,27.20
2019-03-10T05:14:07.829Z,27.20
2019-03-10T05:17:01.094Z,27.20
2019-03-10T05:19:53.816Z,27.10
2019-03-10T05:22:48.139Z,27.10
2019-03-10T05:25:40.642Z,27.20
2019-03-10T05:28:33.762Z,27.20
2019-03-10T05:31:26.084Z,27.20
2019-03-10T05:34:18.893Z,27.20
2019-03-10T05:37:11.462Z,27.20
2019-03-10T05:40:04.424Z,27.20
2019-03-10T05:42:56.821Z,27.20
2019-03-10T05:45:49.533Z,27.20
2019-03-10T05:48:41.586Z,27.20
2019-03-10T05:51:34.410Z,27.20
2019-03-10T05:54:26.391Z,27.20
2019-03-10T05:57:18.781Z,27.20
2019-03-10T06:00:10.802Z,27.20
2019-03-10T06:03:03.254Z,27.20
2019-03-10T06:05:55.293Z,27.20
2019-03-10T06:08:48.059Z,27.20
2019-03-10T06:11:40.258Z,27.20
2019-03-10T06:14:32.747Z,27.20
2019-03-10T06:17:24.817Z,27.20
2019-03-10T06:20:17.614Z,27.20
2019-03-10T06:23:09.552Z,27.30
2019-03-10T06:26:02.086Z,27.30
2019-03-10T06:28:54.364Z,27.30
2019-03-10T06:31:46.519Z,27.30
2019-03-10T06:34:38.771Z,27.20
2019-03-10T06:37:30.914Z,27.20
2019-03-10T06:40:31.598Z,27.30
2019-03-10T06:43:16.931Z,27.30
2019-03-10T06:46:09.357Z,27.20
2019-03-10T06:49:01.548Z,27.30
2019-03-10T06:51:53.608Z,27.20
2019-03-10T06:54:45.819Z,27.30
2019-03-10T06:57:38.082Z,27.30
2019-03-10T07:00:30.423Z,27.30
2019-03-10T07:03:22.330Z,27.30
2019-03-10T07:06:14.478Z,27.30
2019-03-10T07:09:07.418Z,27.30
2019-03-10T07:11:59.375Z,27.30
2019-03-10T07:14:51.462Z,27.30
2019-03-10T07:17:43.847Z,27.30
2019-03-10T07:20:36.086Z,27.30
2019-03-10T07:23:28.471Z,27.30
2019-03-10T07:26:20.356Z,27.30
2019-03-10T07:29:30.412Z,27.30
2019-03-10T07:32:38.976Z,27.30
2019-03-10T07:35:55.325Z,27.30
2019-03-10T07:39:07.964Z,27.30
2019-03-10T07:42:18.130Z,27.40
2019-03-10T07:45:19.792Z,27.30
2019-03-10T07:48:44.940Z,27.40
2019-03-10T07:52:01.207Z,27.40
2019-03-10T07:55:10.923Z,27.40
2019-03-10T07:58:20.571Z,27.40
2019-03-10T08:01:35.827Z,27.40
2019-03-10T08:04:39.893Z,27.40
2019-03-10T08:07:48.522Z,27.30
2019-03-10T08:10:58.769Z,27.40
2019-03-10T08:14:08.797Z,27.40
2019-03-10T08:17:09.853Z,27.40
2019-03-10T08:20:10.064Z,27.30
2019-03-10T08:23:12.388Z,27.30
2019-03-10T08:26:21.095Z,27.40
2019-03-10T08:29:23.472Z,27.40
2019-03-10T08:32:45.590Z,27.40
2019-03-10T08:36:13.558Z,27.40
2019-03-10T08:39:20.746Z,27.40
2019-03-10T08:42:28.988Z,27.40
2019-03-10T08:45:51.171Z,27.40
2019-03-10T08:49:13.320Z,27.40
2019-03-10T08:52:15.922Z,27.40
2019-03-10T08:55:23.437Z,27.40
2019-03-10T08:58:31.965Z,27.40
2019-03-10T09:01:50.204Z,27.40
2019-03-10T09:05:14.722Z,27.40
2019-03-10T09:08:17.409Z,27.40
2019-03-10T09:11:27.722Z,27.40
2019-03-10T09:14:40.684Z,27.40
2019-03-10T09:17:49.203Z,27.40
2019-03-10T09:20:59.838Z,27.40
2019-03-10T09:24:15.106Z,27.40
2019-03-10T09:27:28.652Z,27.40
2019-03-10T09:30:33.939Z,27.40
2019-03-10T09:33:34.075Z,27.40
2019-03-10T09:36:50.045Z,27.40
2019-03-10T09:40:15.119Z,27.40
2019-03-10T09:43:25.125Z,27.40
2019-03-10T09:46:53.156Z,27.40
2019-03-10T09:50:01.533Z,27.40
2019-03-10T09:53:10.018Z,27.40
2019-03-10T09:56:18.192Z,27.40
2019-03-10T09:59:34.488Z,27.50
2019-03-10T10:02:58.761Z,27.50
2019-03-10T10:06:27.090Z,27.40
2019-03-10T10:09:38.236Z,27.40
2019-03-10T10:12:44.909Z,27.40
2019-03-10T10:15:49.971Z,27.50
2019-03-10T10:18:54.301Z,27.50
2019-03-10T10:22:22.353Z,27.50
2019-03-10T10:25:29.102Z,27.50
2019-03-10T10:28:31.320Z,27.50
2019-03-10T10:31:44.501Z,27.40
2019-03-10T10:34:54.609Z,27.40
2019-03-10T10:37:57.582Z,27.40
2019-03-10T10:41:10.919Z,27.50
2019-03-10T10:44:18.941Z,27.50
2019-03-10T10:47:25.995Z,27.50
2019-03-10T10:50:34.444Z,27.50
2019-03-10T10:53:42.873Z,27.50
2019-03-10T10:57:01.780Z,27.50
2019-03-10T11:00:14.638Z,27.50
2019-03-10T11:03:27.685Z,27.50
2019-03-10T11:06:34.828Z,27.50
2019-03-10T11:09:41.842Z,27.50
2019-03-10T11:12:52.442Z,27.50
2019-03-10T11:16:01.374Z,27.50
2019-03-10T11:19:18.649Z,27.50
2019-03-10T11:22:29.080Z,27.50
2019-03-10T11:25:32.173Z,27.50
2019-03-10T11:28:40.810Z,27.50
2019-03-10T11:31:44.119Z,27.50
2019-03-10T11:34:47.154Z,27.50
2019-03-10T11:37:49.063Z,27.50
2019-03-10T11:40:59.281Z,27.50
2019-03-10T11:44:28.244Z,27.50
2019-03-10T11:47:29.764Z,27.50
2019-03-10T11:50:31.650Z,27.50
2019-03-10T11:53:31.529Z,27.50
2019-03-10T11:56:46.026Z,27.50
2019-03-10T11:59:53.326Z,27.50
2019-03-10T12:03:19.002Z,27.50
2019-03-10T12:06:29.646Z,27.50
2019-03-10T12:09:24.732Z,27.50
2019-03-10T12:12:16.994Z,27.50
2019-03-10T12:15:10.365Z,27.50
2019-03-10T12:18:02.712Z,27.50
2019-03-10T12:20:54.763Z,27.50
2019-03-10T12:23:47.187Z,27.50
2019-03-10T12:26:40.066Z,27.50
2019-03-10T12:29:32.182Z,27.50
2019-03-10T12:32:24.131Z,27.50
2019-03-10T12:35:17.353Z,27.50
2019-03-10T12:38:10.799Z,27.50
2019-03-10T12:41:03.166Z,27.50
2019-03-10T12:43:55.699Z,27.50
2019-03-10T12:46:48.386Z,27.50
2019-03-10T12:49:41.512Z,27.50
2019-03-10T12:52:33.802Z,27.50
2019-03-10T12:55:25.998Z,27.50
2019-03-10T12:58:18.329Z,27.50
2019-03-10T13:01:10.555Z,27.50
2019-03-10T13:04:02.890Z,27.50
2019-03-10T13:06:55.261Z,27.50
2019-03-10T13:09:47.629Z,27.50
2019-03-10T13:12:39.932Z,27.50
2019-03-10T13:15:32.216Z,27.50
2019-03-10T13:18:24.375Z,27.50
2019-03-10T13:21:16.315Z,27.50
2019-03-10T13:24:08.828Z,27.50
2019-03-10T13:27:01.382Z,27.50
2019-03-10T13:29:53.138Z,27.50
2019-03-10T13:32:51.021Z,27.50
2019-03-10T13:35:43.218Z,27.50
2019-03-10T13:38:35.457Z,27.50
2019-03-10T13:41:27.699Z,27.50
2019-03-10T13:44:20.151Z,27.50
2019-03-10T13:47:12.602Z,27.50
2019-03-10T13:50:05.034Z,27.50
2019-03-10T13:52:57.387Z,27.50
2019-03-10T13:55:50.329Z,27.50
2019-03-10T13:58:42.754Z,27.50
2019-03-10T14:01:35.063Z,27.50
2019-03-10T14:04:27.191Z,27.50
2019-03-10T14:07:19.650Z,27.50
2019-03-10T14:10:12.359Z,27.50
2019-03-10T14:13:04.341Z,27.50
2019-03-10T14:15:56.581Z,27.50
2019-03-10T14:18:48.798Z,27.50
2019-03-10T14:21:41.170Z,27.50
2019-03-10T14:24:33.561Z,27.50
2019-03-10T14:27:25.864Z,27.50
2019-03-10T14:30:18.416Z,27.50
2019-03-10T14:33:10.265Z,27.50
2019-03-10T14:36:02.313Z,27.50
2019-03-10T14:38:54.595Z,27.50
2019-03-10T14:41:48.763Z,27.50
2019-03-10T14:44:41.006Z,27.50
2019-03-10T14:47:34.235Z,27.50
2019-03-10T14:50:27.384Z,27.50
2019-03-10T14:53:19.336Z,27.50
2019-03-10T14:56:11.585Z,27.50
2019-03-10T14:59:04.162Z,27.50
2019-03-10T15:01:56.595Z,27.50
2019-03-10T15:04:49.169Z,27.50
2019-03-10T15:07:41.303Z,27.50
2019-03-10T15:10:34.026Z,27.50
2019-03-10T15:13:26.853Z,27.50
2019-03-10T15:16:19.124Z,27.50
2019-03-10T15:19:12.233Z,27.50
2019-03-10T15:22:04.494Z,27.50
2019-03-10T15:24:56.716Z,27.50
2019-03-10T15:27:51.601Z,27.50
2019-03-10T15:30:44.844Z,27.50
2019-03-10T15:33:37.264Z,27.50
2019-03-10T15:36:29.549Z,27.50
2019-03-10T15:39:21.860Z,27.50
2019-03-10T15:42:14.153Z,27.50
2019-03-10T15:45:06.729Z,27.50
2019-03-10T15:47:58.778Z,27.50
2019-03-10T15:50:51.297Z,27.50
2019-03-10T15:53:43.549Z,27.50
2019-03-10T15:56:35.607Z,27.50
2019-03-10T15:59:27.311Z,27.50
2019-03-10T16:02:19.631Z,27.50
2019-03-10T16:05:12.308Z,27.50
2019-03-10T16:08:04.140Z,27.50
2019-03-10T16:10:57.448Z,27.60
2019-03-10T16:13:49.829Z,27.50
2019-03-10T16:16:42.261Z,27.50
2019-03-10T16:19:34.467Z,27.50
2019-03-10T16:22:26.451Z,27.60
2019-03-10T16:25:18.621Z,27.50
2019-03-10T16:28:11.001Z,27.50
2019-03-10T16:31:03.279Z,27.50
2019-03-10T16:33:55.577Z,27.50
2019-03-10T16:36:47.771Z,27.50
2019-03-10T16:39:40.255Z,27.50
2019-03-10T16:42:32.298Z,27.50
2019-03-10T16:45:24.430Z,27.50
2019-03-10T16:48:17.782Z,27.60
2019-03-10T16:51:10.024Z,27.60
2019-03-10T16:54:02.359Z,27.60
2019-03-10T16:56:54.748Z,27.50
2019-03-10T16:59:46.710Z,27.50
2019-03-10T17:02:38.741Z,27.60
2019-03-10T17:05:30.942Z,27.50
2019-03-10T17:08:23.188Z,27.50
2019-03-10T17:11:15.383Z,27.50
2019-03-10T17:14:08.180Z,27.50
2019-03-10T17:17:00.934Z,27.60
2019-03-10T17:19:53.465Z,27.50
2019-03-10T17:22:45.690Z,27.50
2019-03-10T17:25:38.818Z,27.50
2019-03-10T17:28:31.160Z,27.60
2019-03-10T17:31:23.337Z,27.50
2019-03-10T17:34:15.535Z,27.50
2019-03-10T17:37:07.810Z,27.60
2019-03-10T17:39:59.940Z,27.50
2019-03-10T17:42:52.148Z,27.50
2019-03-10T17:45:44.436Z,27.50
2019-03-10T17:48:36.770Z,27.50
2019-03-10T17:51:29.002Z,27.60
2019-03-10T17:54:21.085Z,27.60
2019-03-10T17:57:13.313Z,27.50
2019-03-10T18:00:05.505Z,27.60
2019-03-10T18:02:57.602Z,27.60
2019-03-10T18:05:51.163Z,27.50
2019-03-10T18:08:43.149Z,27.50
2019-03-10T18:11:35.244Z,27.50
2019-03-10T18:14:27.308Z,27.60
2019-03-10T18:17:19.730Z,27.60
2019-03-10T18:20:13.296Z,27.60
2019-03-10T18:23:05.169Z,27.50
2019-03-10T18:25:57.492Z,27.50
2019-03-10T18:28:49.361Z,27.60
2019-03-10T18:31:42.678Z,27.50
2019-03-10T18:34:34.886Z,27.50
2019-03-10T18:37:27.076Z,27.60
2019-03-10T18:40:20.045Z,27.60
2019-03-10T18:43:11.985Z,27.60
2019-03-10T18:46:04.043Z,27.60
2019-03-10T18:48:59.235Z,27.60
2019-03-10T18:51:51.469Z,27.60
2019-03-10T18:54:43.775Z,27.50
2019-03-10T18:57:39.011Z,27.60
2019-03-10T19:00:31.141Z,27.60
2019-03-10T19:03:23.312Z,27.60
2019-03-10T19:06:15.535Z,27.50
2019-03-10T19:09:09.324Z,27.50
2019-03-10T19:12:01.736Z,27.50
2019-03-10T19:14:54.571Z,27.50
2019-03-10T19:17:47.341Z,27.50
2019-03-10T19:20:40.413Z,27.60
2019-03-10T19:23:33.107Z,27.60
2019-03-10T19:26:25.345Z,27.50
2019-03-10T19:29:17.972Z,27.50
2019-03-10T19:32:10.160Z,27.50
2019-03-10T19:35:02.832Z,27.50
2019-03-10T19:37:56.033Z,27.50
2019-03-10T19:40:48.428Z,27.50
2019-03-10T19:43:41.770Z,27.50
2019-03-10T19:46:34.445Z,27.50
2019-03-10T19:49:26.807Z,27.50
2019-03-10T19:52:19.288Z,27.50
2019-03-10T19:55:15.318Z,27.50
2019-03-10T19:58:07.198Z,27.50
2019-03-10T20:00:59.358Z,27.50
2019-03-10T20:03:51.711Z,27.50
2019-03-10T20:06:43.687Z,27.50
2019-03-10T20:09:36.186Z,27.50
2019-03-10T20:12:28.298Z,27.50
2019-03-10T20:15:21.440Z,27.50
2019-03-10T20:18:13.741Z,27.50
2019-03-10T20:21:06.324Z,27.50
2019-03-10T20:23:58.776Z,27.50
2019-03-10T20:26:51.305Z,27.50
2019-03-10T20:29:43.426Z,27.50
2019-03-10T20:32:35.787Z,27.50
2019-03-10T20:35:28.072Z,27.50
2019-03-10T20:38:19.877Z,27.50
2019-03-10T20:41:12.162Z,27.50
2019-03-10T20:44:04.230Z,27.50
2019-03-10T20:46:56.417Z,27.50
2019-03-10T20:49:48.479Z,27.50
2019-03-10T20:52:40.599Z,27.50
2019-03-10T20:55:32.615Z,27.50
2019-03-10T20:58:24.884Z,27.50
2019-03-10T21:01:17.901Z,27.50
2019-03-10T21:04:10.187Z,27.50
2019-03-10T21:07:02.490Z,27.50
2019-03-10T21:09:54.724Z,27.50
2019-03-10T21:12:47.026Z,27.50
2019-03-10T21:15:39.204Z,27.50
2019-03-10T21:18:31.520Z,27.50
2019-03-10T21:21:23.794Z,27.50
2019-03-10T21:24:15.818Z,27.50
2019-03-10T21:27:07.880Z,27.50
2019-03-10T21:29:59.687Z,27.50
2019-03-10T21:32:51.791Z,27.50
2019-03-10T21:35:43.905Z,27.50
2019-03-10T21:38:35.820Z,27.50
2019-03-10T21:41:27.669Z,27.50
2019-03-10T21:44:26.385Z,27.50
2019-03-10T21:47:12.694Z,27.50
2019-03-10T21:50:04.821Z,27.50
2019-03-10T21:52:57.342Z,27.50
2019-03-10T21:55:49.348Z,27.50
2019-03-10T21:58:41.446Z,27.50
2019-03-10T22:01:33.341Z,27.50
2019-03-10T22:04:25.805Z,27.50
2019-03-10T22:07:17.666Z,27.50
2019-03-10T22:10:09.843Z,27.50
2019-03-10T22:13:02.088Z,27.50
2019-03-10T22:15:55.210Z,27.50
2019-03-10T22:18:47.300Z,27.50
2019-03-10T22:21:39.816Z,27.50
2019-03-10T22:24:31.945Z,27.50
2019-03-10T22:27:24.107Z,27.50
2019-03-10T22:30:16.852Z,27.50
2019-03-10T22:33:08.644Z,27.50
2019-03-10T22:36:00.684Z,27.50
2019-03-10T22:38:52.915Z,27.50
2019-03-10T22:41:44.712Z,27.50
2019-03-10T22:44:36.843Z,27.50
2019-03-10T22:47:28.871Z,27.50
2019-03-10T22:50:21.013Z,27.50
2019-03-10T22:53:13.126Z,27.50
2019-03-10T22:56:05.389Z,27.50
2019-03-10T22:58:57.668Z,27.50
2019-03-10T23:01:49.951Z,27.50
2019-03-10T23:04:41.831Z,27.50
2019-03-10T23:07:34.515Z,27.50
2019-03-10T23:10:26.867Z,27.50
2019-03-10T23:13:19.371Z,27.50
2019-03-10T23:16:12.029Z,27.50
2019-03-10T23:19:04.146Z,27.50
2019-03-10T23:21:56.550Z,27.50
2019-03-10T23:24:48.733Z,27.50
2019-03-10T23:27:41.929Z,27.50
2019-03-10T23:30:34.723Z,27.40
2019-03-10T23:33:27.840Z,27.40
2019-03-10T23:36:20.222Z,27.50
2019-03-10T23:39:12.216Z,27.40
2019-03-10T23:42:05.580Z,27.50
2019-03-10T23:44:57.700Z,27.50
2019-03-10T23:47:49.831Z,27.50
2019-03-10T23:50:42.023Z,27.50
2019-03-10T23:53:34.078Z,27.40
2019-03-10T23:56:28.400Z,27.40
2019-03-10T23:59:20.333Z,27.40
